Brookston, Minnesota
Current Conditions -  °F | °C
As of 5:37 PM on Wednesday 22 Oct 2014 (Local Time) from KCOQ Reporting Station
Scattered Clouds Scattered Clouds  
Wind Chill: 55°   Ceiling: Unl
Heat Index: 55°   Visibility: 10mi
Dew Point: 37°   Wind: 7mph
Humidity: 51%   Direction: 150°SSE
Pressure: 30.03"   Gusts: NA
Location:  46.87°N, 92.6°W
Report Text: KCOQ 222237Z AUTO 15006KT 10SM SCT070 13/03 A3003 RMK AO2 LTG DSNT S
Loading
Personal Weather Stations






























Interactive Weather Map
Tropical Storm Tracking
New forecast layout! Learn more

10-Day Weather Forecast

Advertisements
Track Severe Weather on mobile